sensor_id;sensor_type;location;lat;lon;timestamp;temperature;humidity
9450;DHT22;4763;48.370;10.874;2022-12-07T00:00:51;2.80;99.90
9450;DHT22;4763;48.370;10.874;2022-12-07T00:03:19;2.70;99.90
9450;DHT22;4763;48.370;10.874;2022-12-07T00:05:46;2.70;99.90
9450;DHT22;4763;48.370;10.874;2022-12-07T00:08:13;2.70;99.90
9450;DHT22;4763;48.370;10.874;2022-12-07T00:10:39;2.70;99.90
9450;DHT22;4763;48.370;10.874;2022-12-07T00:13:06;2.70;99.90
9450;DHT22;4763;48.370;10.874;2022-12-07T00:15:33;2.70;99.90
9450;DHT22;4763;48.370;10.874;2022-12-07T00:18:01;2.70;99.90
9450;DHT22;4763;48.370;10.874;2022-12-07T00:20:29;2.70;99.90
9450;DHT22;4763;48.370;10.874;2022-12-07T00:22:56;2.70;99.90
9450;DHT22;4763;48.370;10.874;2022-12-07T00:25:23;2.70;99.90
9450;DHT22;4763;48.370;10.874;2022-12-07T00:27:50;2.70;99.90
9450;DHT22;4763;48.370;10.874;2022-12-07T00:30:17;2.70;99.90
9450;DHT22;4763;48.370;10.874;2022-12-07T00:32:43;2.70;99.90
9450;DHT22;4763;48.370;10.874;2022-12-07T00:35:10;2.70;99.90
9450;DHT22;4763;48.370;10.874;2022-12-07T00:37:38;2.70;99.90
9450;DHT22;4763;48.370;10.874;2022-12-07T00:40:06;2.70;99.90
9450;DHT22;4763;48.370;10.874;2022-12-07T00:42:33;2.70;99.90
9450;DHT22;4763;48.370;10.874;2022-12-07T00:45:00;2.70;99.90
9450;DHT22;4763;48.370;10.874;2022-12-07T00:47:26;2.70;99.90
9450;DHT22;4763;48.370;10.874;2022-12-07T00:49:53;2.60;99.90
9450;DHT22;4763;48.370;10.874;2022-12-07T00:52:20;2.60;99.90
9450;DHT22;4763;48.370;10.874;2022-12-07T00:54:48;2.60;99.90
9450;DHT22;4763;48.370;10.874;2022-12-07T00:57:15;2.60;99.90
9450;DHT22;4763;48.370;10.874;2022-12-07T00:59:42;2.60;99.90
9450;DHT22;4763;48.370;10.874;2022-12-07T01:02:08;2.60;99.90
9450;DHT22;4763;48.370;10.874;2022-12-07T01:04:35;2.60;99.90
9450;DHT22;4763;48.370;10.874;2022-12-07T01:07:02;2.60;99.90
9450;DHT22;4763;48.370;10.874;2022-12-07T01:09:29;2.60;99.90
9450;DHT22;4763;48.370;10.874;2022-12-07T01:11:57;2.60;99.90
9450;DHT22;4763;48.370;10.874;2022-12-07T01:14:24;2.60;99.90
9450;DHT22;4763;48.370;10.874;2022-12-07T01:16:50;2.60;99.90
9450;DHT22;4763;48.370;10.874;2022-12-07T01:19:17;2.60;99.90
9450;DHT22;4763;48.370;10.874;2022-12-07T01:21:44;2.60;99.90
9450;DHT22;4763;48.370;10.874;2022-12-07T01:24:11;2.60;99.90
9450;DHT22;4763;48.370;10.874;2022-12-07T01:26:38;2.60;99.90
9450;DHT22;4763;48.370;10.874;2022-12-07T01:29:06;2.60;99.90
9450;DHT22;4763;48.370;10.874;2022-12-07T01:31:33;2.60;99.90
9450;DHT22;4763;48.370;10.874;2022-12-07T01:34:00;2.60;99.90
9450;DHT22;4763;48.370;10.874;2022-12-07T01:36:29;2.50;99.90
9450;DHT22;4763;48.370;10.874;2022-12-07T01:38:58;2.60;99.90
9450;DHT22;4763;48.370;10.874;2022-12-07T01:41:26;2.60;99.90
9450;DHT22;4763;48.370;10.874;2022-12-07T01:44:15;2.50;99.90
9450;DHT22;4763;48.370;10.874;2022-12-07T01:46:44;2.50;99.90
9450;DHT22;4763;48.370;10.874;2022-12-07T01:49:16;2.50;99.90
9450;DHT22;4763;48.370;10.874;2022-12-07T01:51:43;2.60;99.90
9450;DHT22;4763;48.370;10.874;2022-12-07T01:54:12;2.50;99.90
9450;DHT22;4763;48.370;10.874;2022-12-07T01:56:42;2.50;99.90
9450;DHT22;4763;48.370;10.874;2022-12-07T01:59:12;2.50;99.90
9450;DHT22;4763;48.370;10.874;2022-12-07T02:01:39;2.50;99.90
9450;DHT22;4763;48.370;10.874;2022-12-07T02:04:06;2.50;99.90
9450;DHT22;4763;48.370;10.874;2022-12-07T02:06:35;2.50;99.90
9450;DHT22;4763;48.370;10.874;2022-12-07T02:09:03;2.50;99.90
9450;DHT22;4763;48.370;10.874;2022-12-07T02:11:30;2.50;99.90
9450;DHT22;4763;48.370;10.874;2022-12-07T02:13:57;2.50;99.90
9450;DHT22;4763;48.370;10.874;2022-12-07T02:16:32;2.50;99.90
9450;DHT22;4763;48.370;10.874;2022-12-07T02:22:04;2.50;99.90
9450;DHT22;4763;48.370;10.874;2022-12-07T02:24:45;2.50;99.90
9450;DHT22;4763;48.370;10.874;2022-12-07T02:27:28;2.50;99.90
9450;DHT22;4763;48.370;10.874;2022-12-07T02:30:01;2.50;99.90
9450;DHT22;4763;48.370;10.874;2022-12-07T02:32:38;2.50;99.90
9450;DHT22;4763;48.370;10.874;2022-12-07T02:35:10;2.50;99.90
9450;DHT22;4763;48.370;10.874;2022-12-07T02:37:40;2.50;99.90
9450;DHT22;4763;48.370;10.874;2022-12-07T02:40:12;2.40;99.90
9450;DHT22;4763;48.370;10.874;2022-12-07T02:42:46;2.40;99.90
9450;DHT22;4763;48.370;10.874;2022-12-07T02:45:18;2.40;99.90
9450;DHT22;4763;48.370;10.874;2022-12-07T02:47:48;2.40;99.90
9450;DHT22;4763;48.370;10.874;2022-12-07T02:50:18;2.40;99.90
9450;DHT22;4763;48.370;10.874;2022-12-07T02:52:46;2.40;99.90
9450;DHT22;4763;48.370;10.874;2022-12-07T02:55:15;2.40;99.90
9450;DHT22;4763;48.370;10.874;2022-12-07T02:57:52;2.40;99.90
9450;DHT22;4763;48.370;10.874;2022-12-07T03:00:22;2.40;99.90
9450;DHT22;4763;48.370;10.874;2022-12-07T03:02:54;2.40;99.90
9450;DHT22;4763;48.370;10.874;2022-12-07T03:05:45;2.40;99.90
9450;DHT22;4763;48.370;10.874;2022-12-07T03:08:24;2.40;99.90
9450;DHT22;4763;48.370;10.874;2022-12-07T03:10:56;2.40;99.90
9450;DHT22;4763;48.370;10.874;2022-12-07T03:13:28;2.40;99.90
9450;DHT22;4763;48.370;10.874;2022-12-07T03:16:02;2.40;99.90
9450;DHT22;4763;48.370;10.874;2022-12-07T03:18:34;2.40;99.90
9450;DHT22;4763;48.370;10.874;2022-12-07T03:21:05;2.40;99.90
9450;DHT22;4763;48.370;10.874;2022-12-07T03:23:34;2.40;99.90
9450;DHT22;4763;48.370;10.874;2022-12-07T03:26:03;2.40;99.90
9450;DHT22;4763;48.370;10.874;2022-12-07T03:28:34;2.40;99.90
9450;DHT22;4763;48.370;10.874;2022-12-07T03:31:10;2.40;99.90
9450;DHT22;4763;48.370;10.874;2022-12-07T03:33:43;2.40;99.90
9450;DHT22;4763;48.370;10.874;2022-12-07T03:36:15;2.40;99.90
9450;DHT22;4763;48.370;10.874;2022-12-07T03:38:46;2.40;99.90
9450;DHT22;4763;48.370;10.874;2022-12-07T03:41:18;2.40;99.90
9450;DHT22;4763;48.370;10.874;2022-12-07T03:43:46;2.40;99.90
9450;DHT22;4763;48.370;10.874;2022-12-07T03:46:19;2.40;99.90
9450;DHT22;4763;48.370;10.874;2022-12-07T03:48:54;2.40;99.90
9450;DHT22;4763;48.370;10.874;2022-12-07T03:51:28;2.40;99.90
9450;DHT22;4763;48.370;10.874;2022-12-07T03:54:00;2.40;99.90
9450;DHT22;4763;48.370;10.874;2022-12-07T03:56:30;2.40;99.90
9450;DHT22;4763;48.370;10.874;2022-12-07T03:58:58;2.40;99.90
9450;DHT22;4763;48.370;10.874;2022-12-07T04:01:27;2.30;99.90
9450;DHT22;4763;48.370;10.874;2022-12-07T04:03:54;2.30;99.90
9450;DHT22;4763;48.370;10.874;2022-12-07T04:06:21;2.40;99.90
9450;DHT22;4763;48.370;10.874;2022-12-07T04:08:47;2.30;99.90
9450;DHT22;4763;48.370;10.874;2022-12-07T04:11:14;2.30;99.90
9450;DHT22;4763;48.370;10.874;2022-12-07T04:13:41;2.30;99.90
9450;DHT22;4763;48.370;10.874;2022-12-07T04:16:27;2.30;99.90
9450;DHT22;4763;48.370;10.874;2022-12-07T04:18:53;2.40;99.90
9450;DHT22;4763;48.370;10.874;2022-12-07T04:21:20;2.40;99.90
9450;DHT22;4763;48.370;10.874;2022-12-07T04:23:47;2.30;99.90
9450;DHT22;4763;48.370;10.874;2022-12-07T04:26:14;2.30;99.90
9450;DHT22;4763;48.370;10.874;2022-12-07T04:28:40;2.30;99.90
9450;DHT22;4763;48.370;10.874;2022-12-07T04:31:07;2.30;99.90
9450;DHT22;4763;48.370;10.874;2022-12-07T04:33:37;2.30;99.90
9450;DHT22;4763;48.370;10.874;2022-12-07T04:36:04;2.30;99.90
9450;DHT22;4763;48.370;10.874;2022-12-07T04:38:32;2.30;99.90
9450;DHT22;4763;48.370;10.874;2022-12-07T04:41:04;2.30;99.90
9450;DHT22;4763;48.370;10.874;2022-12-07T04:43:31;2.30;99.90
9450;DHT22;4763;48.370;10.874;2022-12-07T04:45:58;2.30;99.90
9450;DHT22;4763;48.370;10.874;2022-12-07T04:48:25;2.30;99.90
9450;DHT22;4763;48.370;10.874;2022-12-07T04:50:53;2.30;99.90
9450;DHT22;4763;48.370;10.874;2022-12-07T04:53:20;2.30;99.90
9450;DHT22;4763;48.370;10.874;2022-12-07T04:55:47;2.30;99.90
9450;DHT22;4763;48.370;10.874;2022-12-07T04:58:14;2.30;99.90
9450;DHT22;4763;48.370;10.874;2022-12-07T05:00:41;2.30;99.90
9450;DHT22;4763;48.370;10.874;2022-12-07T05:03:07;2.30;99.90
9450;DHT22;4763;48.370;10.874;2022-12-07T05:05:34;2.20;99.90
9450;DHT22;4763;48.370;10.874;2022-12-07T05:08:02;2.20;99.90
9450;DHT22;4763;48.370;10.874;2022-12-07T05:10:29;2.20;99.90
9450;DHT22;4763;48.370;10.874;2022-12-07T05:12:56;2.20;99.90
9450;DHT22;4763;48.370;10.874;2022-12-07T05:15:23;2.20;99.90
9450;DHT22;4763;48.370;10.874;2022-12-07T05:17:49;2.20;99.90
9450;DHT22;4763;48.370;10.874;2022-12-07T05:20:17;2.30;99.90
9450;DHT22;4763;48.370;10.874;2022-12-07T05:22:44;2.30;99.90
9450;DHT22;4763;48.370;10.874;2022-12-07T05:25:12;2.20;99.90
9450;DHT22;4763;48.370;10.874;2022-12-07T05:27:39;2.30;99.90
9450;DHT22;4763;48.370;10.874;2022-12-07T05:30:07;2.20;99.90
9450;DHT22;4763;48.370;10.874;2022-12-07T05:32:34;2.20;99.90
9450;DHT22;4763;48.370;10.874;2022-12-07T05:35:01;2.20;99.90
9450;DHT22;4763;48.370;10.874;2022-12-07T05:37:27;2.20;99.90
9450;DHT22;4763;48.370;10.874;2022-12-07T05:39:54;2.20;99.90
9450;DHT22;4763;48.370;10.874;2022-12-07T05:42:22;2.20;99.90
9450;DHT22;4763;48.370;10.874;2022-12-07T05:44:49;2.20;99.90
9450;DHT22;4763;48.370;10.874;2022-12-07T05:47:16;2.20;99.90
9450;DHT22;4763;48.370;10.874;2022-12-07T05:49:43;2.20;99.90
9450;DHT22;4763;48.370;10.874;2022-12-07T05:52:11;2.20;99.90
9450;DHT22;4763;48.370;10.874;2022-12-07T05:54:37;2.20;99.90
9450;DHT22;4763;48.370;10.874;2022-12-07T05:57:04;2.20;99.90
9450;DHT22;4763;48.370;10.874;2022-12-07T05:59:32;2.20;99.90
9450;DHT22;4763;48.370;10.874;2022-12-07T06:02:00;2.20;99.90
9450;DHT22;4763;48.370;10.874;2022-12-07T06:04:29;2.20;99.90
9450;DHT22;4763;48.370;10.874;2022-12-07T06:06:56;2.20;99.90
9450;DHT22;4763;48.370;10.874;2022-12-07T06:09:24;2.20;99.90
9450;DHT22;4763;48.370;10.874;2022-12-07T06:11:52;2.10;99.90
9450;DHT22;4763;48.370;10.874;2022-12-07T06:14:38;2.10;99.90
9450;DHT22;4763;48.370;10.874;2022-12-07T06:17:05;2.10;99.90
9450;DHT22;4763;48.370;10.874;2022-12-07T06:19:32;2.10;99.90
9450;DHT22;4763;48.370;10.874;2022-12-07T06:21:59;2.10;99.90
9450;DHT22;4763;48.370;10.874;2022-12-07T06:24:26;2.10;99.90
9450;DHT22;4763;48.370;10.874;2022-12-07T06:26:53;2.10;99.90
9450;DHT22;4763;48.370;10.874;2022-12-07T06:29:23;2.00;99.90
9450;DHT22;4763;48.370;10.874;2022-12-07T06:31:52;2.00;99.90
9450;DHT22;4763;48.370;10.874;2022-12-07T06:34:21;2.00;99.90
9450;DHT22;4763;48.370;10.874;2022-12-07T06:36:49;1.90;99.90
9450;DHT22;4763;48.370;10.874;2022-12-07T06:39:17;1.90;99.90
9450;DHT22;4763;48.370;10.874;2022-12-07T06:41:44;2.00;99.90
9450;DHT22;4763;48.370;10.874;2022-12-07T06:44:11;2.00;99.90
9450;DHT22;4763;48.370;10.874;2022-12-07T06:46:38;1.90;99.90
9450;DHT22;4763;48.370;10.874;2022-12-07T06:49:06;1.90;99.90
9450;DHT22;4763;48.370;10.874;2022-12-07T06:51:33;1.80;99.90
9450;DHT22;4763;48.370;10.874;2022-12-07T06:54:02;1.80;99.90
9450;DHT22;4763;48.370;10.874;2022-12-07T06:56:29;1.80;99.90
9450;DHT22;4763;48.370;10.874;2022-12-07T06:58:55;1.80;99.90
9450;DHT22;4763;48.370;10.874;2022-12-07T07:01:22;1.70;99.90
9450;DHT22;4763;48.370;10.874;2022-12-07T07:03:49;1.70;99.90
9450;DHT22;4763;48.370;10.874;2022-12-07T07:06:20;1.70;99.90
9450;DHT22;4763;48.370;10.874;2022-12-07T07:08:46;1.80;99.90
9450;DHT22;4763;48.370;10.874;2022-12-07T07:11:13;1.70;99.90
9450;DHT22;4763;48.370;10.874;2022-12-07T07:13:40;1.70;99.90
9450;DHT22;4763;48.370;10.874;2022-12-07T07:16:07;1.70;99.90
9450;DHT22;4763;48.370;10.874;2022-12-07T07:18:34;1.80;99.90
9450;DHT22;4763;48.370;10.874;2022-12-07T07:21:01;1.80;99.90
9450;DHT22;4763;48.370;10.874;2022-12-07T07:23:29;1.80;99.90
9450;DHT22;4763;48.370;10.874;2022-12-07T07:25:56;1.80;99.90
9450;DHT22;4763;48.370;10.874;2022-12-07T07:28:23;1.80;99.90
9450;DHT22;4763;48.370;10.874;2022-12-07T07:30:50;1.80;99.90
9450;DHT22;4763;48.370;10.874;2022-12-07T07:33:16;1.70;99.90
9450;DHT22;4763;48.370;10.874;2022-12-07T07:35:43;1.70;99.90
9450;DHT22;4763;48.370;10.874;2022-12-07T07:38:10;1.70;99.90
9450;DHT22;4763;48.370;10.874;2022-12-07T07:40:38;1.70;99.90
9450;DHT22;4763;48.370;10.874;2022-12-07T07:43:05;1.70;99.90
9450;DHT22;4763;48.370;10.874;2022-12-07T07:45:32;1.70;99.90
9450;DHT22;4763;48.370;10.874;2022-12-07T07:47:58;1.70;99.90
9450;DHT22;4763;48.370;10.874;2022-12-07T07:50:25;1.60;99.90
9450;DHT22;4763;48.370;10.874;2022-12-07T07:52:52;1.60;99.90
9450;DHT22;4763;48.370;10.874;2022-12-07T07:55:19;1.60;99.90
9450;DHT22;4763;48.370;10.874;2022-12-07T07:57:47;1.60;99.90
9450;DHT22;4763;48.370;10.874;2022-12-07T08:00:15;1.60;99.90
9450;DHT22;4763;48.370;10.874;2022-12-07T08:02:42;1.60;99.90
9450;DHT22;4763;48.370;10.874;2022-12-07T08:05:10;1.60;99.90
9450;DHT22;4763;48.370;10.874;2022-12-07T08:07:37;1.60;99.90
9450;DHT22;4763;48.370;10.874;2022-12-07T08:10:05;1.60;99.90
9450;DHT22;4763;48.370;10.874;2022-12-07T08:12:36;1.60;99.90
9450;DHT22;4763;48.370;10.874;2022-12-07T08:15:25;1.70;99.90
9450;DHT22;4763;48.370;10.874;2022-12-07T08:17:52;1.60;99.90
9450;DHT22;4763;48.370;10.874;2022-12-07T08:20:18;1.60;99.90
9450;DHT22;4763;48.370;10.874;2022-12-07T08:22:45;1.60;99.90
9450;DHT22;4763;48.370;10.874;2022-12-07T08:25:12;1.70;99.90
9450;DHT22;4763;48.370;10.874;2022-12-07T08:27:39;1.60;99.90
9450;DHT22;4763;48.370;10.874;2022-12-07T08:30:07;1.60;99.90
9450;DHT22;4763;48.370;10.874;2022-12-07T08:32:35;1.60;99.90
9450;DHT22;4763;48.370;10.874;2022-12-07T08:35:02;1.60;99.90
9450;DHT22;4763;48.370;10.874;2022-12-07T08:37:29;1.60;99.90
9450;DHT22;4763;48.370;10.874;2022-12-07T08:39:55;1.60;99.90
9450;DHT22;4763;48.370;10.874;2022-12-07T08:42:23;1.60;99.90
9450;DHT22;4763;48.370;10.874;2022-12-07T08:44:53;1.60;99.90
9450;DHT22;4763;48.370;10.874;2022-12-07T08:47:19;1.70;99.90
9450;DHT22;4763;48.370;10.874;2022-12-07T08:49:50;1.80;99.90
9450;DHT22;4763;48.370;10.874;2022-12-07T08:52:18;1.90;99.90
9450;DHT22;4763;48.370;10.874;2022-12-07T08:54:45;2.10;99.90
9450;DHT22;4763;48.370;10.874;2022-12-07T08:57:12;2.30;99.90
9450;DHT22;4763;48.370;10.874;2022-12-07T08:59:38;2.40;99.90
9450;DHT22;4763;48.370;10.874;2022-12-07T09:02:06;2.50;99.90
9450;DHT22;4763;48.370;10.874;2022-12-07T09:04:33;2.70;99.90
9450;DHT22;4763;48.370;10.874;2022-12-07T09:07:01;2.80;99.90
9450;DHT22;4763;48.370;10.874;2022-12-07T09:09:28;2.90;99.90
9450;DHT22;4763;48.370;10.874;2022-12-07T09:11:55;3.30;99.90
9450;DHT22;4763;48.370;10.874;2022-12-07T09:14:22;3.70;99.90
9450;DHT22;4763;48.370;10.874;2022-12-07T09:16:49;4.10;99.90
9450;DHT22;4763;48.370;10.874;2022-12-07T09:19:16;4.20;99.90
9450;DHT22;4763;48.370;10.874;2022-12-07T09:21:43;4.50;99.90
9450;DHT22;4763;48.370;10.874;2022-12-07T09:24:11;4.40;99.90
9450;DHT22;4763;48.370;10.874;2022-12-07T09:26:38;4.40;99.90
9450;DHT22;4763;48.370;10.874;2022-12-07T09:29:06;4.40;99.90
9450;DHT22;4763;48.370;10.874;2022-12-07T09:31:32;4.50;99.90
9450;DHT22;4763;48.370;10.874;2022-12-07T09:34:00;4.50;99.90
9450;DHT22;4763;48.370;10.874;2022-12-07T09:36:27;4.70;99.90
9450;DHT22;4763;48.370;10.874;2022-12-07T09:38:55;4.90;99.90
9450;DHT22;4763;48.370;10.874;2022-12-07T09:41:24;5.00;99.90
9450;DHT22;4763;48.370;10.874;2022-12-07T09:43:52;5.10;99.90
9450;DHT22;4763;48.370;10.874;2022-12-07T09:46:20;5.20;99.90
9450;DHT22;4763;48.370;10.874;2022-12-07T09:48:48;5.30;99.90
9450;DHT22;4763;48.370;10.874;2022-12-07T09:51:17;5.70;99.90
9450;DHT22;4763;48.370;10.874;2022-12-07T09:53:46;5.70;99.90
9450;DHT22;4763;48.370;10.874;2022-12-07T09:56:13;5.50;99.90
9450;DHT22;4763;48.370;10.874;2022-12-07T09:58:42;5.70;99.90
9450;DHT22;4763;48.370;10.874;2022-12-07T10:01:13;5.70;99.90
9450;DHT22;4763;48.370;10.874;2022-12-07T10:03:44;5.50;99.90
9450;DHT22;4763;48.370;10.874;2022-12-07T10:06:13;5.60;99.90
9450;DHT22;4763;48.370;10.874;2022-12-07T10:08:40;5.30;99.90
9450;DHT22;4763;48.370;10.874;2022-12-07T10:11:09;5.30;99.90
9450;DHT22;4763;48.370;10.874;2022-12-07T10:13:39;5.30;99.90
9450;DHT22;4763;48.370;10.874;2022-12-07T10:16:28;5.40;99.90
9450;DHT22;4763;48.370;10.874;2022-12-07T10:19:17;5.60;99.90
9450;DHT22;4763;48.370;10.874;2022-12-07T10:21:59;5.70;99.90
9450;DHT22;4763;48.370;10.874;2022-12-07T10:24:27;5.60;99.90
9450;DHT22;4763;48.370;10.874;2022-12-07T10:26:53;5.50;99.90
9450;DHT22;4763;48.370;10.874;2022-12-07T10:29:23;5.40;99.90
9450;DHT22;4763;48.370;10.874;2022-12-07T10:31:55;5.30;99.90
9450;DHT22;4763;48.370;10.874;2022-12-07T10:34:25;5.20;99.90
9450;DHT22;4763;48.370;10.874;2022-12-07T10:37:11;5.20;99.90
9450;DHT22;4763;48.370;10.874;2022-12-07T10:39:41;5.20;99.90
9450;DHT22;4763;48.370;10.874;2022-12-07T10:42:16;5.10;99.90
9450;DHT22;4763;48.370;10.874;2022-12-07T10:44:43;5.20;99.90
9450;DHT22;4763;48.370;10.874;2022-12-07T10:47:34;5.20;99.90
9450;DHT22;4763;48.370;10.874;2022-12-07T10:53:21;5.10;99.90
9450;DHT22;4763;48.370;10.874;2022-12-07T10:56:01;5.10;99.90
9450;DHT22;4763;48.370;10.874;2022-12-07T10:58:51;5.20;99.90
9450;DHT22;4763;48.370;10.874;2022-12-07T11:01:24;5.20;99.90
9450;DHT22;4763;48.370;10.874;2022-12-07T11:04:21;5.20;99.90
9450;DHT22;4763;48.370;10.874;2022-12-07T11:06:57;5.20;99.90
9450;DHT22;4763;48.370;10.874;2022-12-07T11:09:45;5.20;99.90
9450;DHT22;4763;48.370;10.874;2022-12-07T11:12:24;5.20;99.90
9450;DHT22;4763;48.370;10.874;2022-12-07T11:14:58;5.20;99.90
9450;DHT22;4763;48.370;10.874;2022-12-07T11:17:33;5.20;99.90
9450;DHT22;4763;48.370;10.874;2022-12-07T11:20:14;5.10;99.90
9450;DHT22;4763;48.370;10.874;2022-12-07T11:22:47;5.10;99.90
9450;DHT22;4763;48.370;10.874;2022-12-07T11:25:23;5.10;99.90
9450;DHT22;4763;48.370;10.874;2022-12-07T11:28:06;5.20;99.90
9450;DHT22;4763;48.370;10.874;2022-12-07T11:30:40;5.20;99.90
9450;DHT22;4763;48.370;10.874;2022-12-07T11:33:15;5.10;99.90
9450;DHT22;4763;48.370;10.874;2022-12-07T11:35:57;5.00;99.90
9450;DHT22;4763;48.370;10.874;2022-12-07T11:38:33;5.00;99.90
9450;DHT22;4763;48.370;10.874;2022-12-07T11:41:05;5.10;99.90
9450;DHT22;4763;48.370;10.874;2022-12-07T11:43:53;5.10;99.90
9450;DHT22;4763;48.370;10.874;2022-12-07T11:46:24;5.10;99.90
9450;DHT22;4763;48.370;10.874;2022-12-07T11:48:58;5.10;99.90
9450;DHT22;4763;48.370;10.874;2022-12-07T11:51:33;5.10;99.90
9450;DHT22;4763;48.370;10.874;2022-12-07T11:54:04;5.00;99.90
9450;DHT22;4763;48.370;10.874;2022-12-07T11:56:35;5.10;99.90
9450;DHT22;4763;48.370;10.874;2022-12-07T11:59:09;5.10;99.90
9450;DHT22;4763;48.370;10.874;2022-12-07T12:01:45;5.10;99.90
9450;DHT22;4763;48.370;10.874;2022-12-07T12:04:27;5.10;99.90
9450;DHT22;4763;48.370;10.874;2022-12-07T12:06:57;5.00;99.90
9450;DHT22;4763;48.370;10.874;2022-12-07T12:09:29;5.10;99.90
9450;DHT22;4763;48.370;10.874;2022-12-07T12:15:15;5.00;99.90
9450;DHT22;4763;48.370;10.874;2022-12-07T12:18:01;5.00;99.90
9450;DHT22;4763;48.370;10.874;2022-12-07T12:20:35;5.00;99.90
9450;DHT22;4763;48.370;10.874;2022-12-07T12:23:09;5.00;99.90
9450;DHT22;4763;48.370;10.874;2022-12-07T12:25:40;5.00;99.90
9450;DHT22;4763;48.370;10.874;2022-12-07T12:28:20;5.00;99.90
9450;DHT22;4763;48.370;10.874;2022-12-07T12:31:04;5.10;99.90
9450;DHT22;4763;48.370;10.874;2022-12-07T12:33:32;5.00;99.90
9450;DHT22;4763;48.370;10.874;2022-12-07T12:36:17;5.10;99.90
9450;DHT22;4763;48.370;10.874;2022-12-07T12:38:50;5.10;99.90
9450;DHT22;4763;48.370;10.874;2022-12-07T12:41:57;5.00;99.90
9450;DHT22;4763;48.370;10.874;2022-12-07T12:50:31;5.00;99.90
9450;DHT22;4763;48.370;10.874;2022-12-07T12:53:04;4.90;99.90
9450;DHT22;4763;48.370;10.874;2022-12-07T12:56:03;4.90;99.90
9450;DHT22;4763;48.370;10.874;2022-12-07T12:58:41;4.90;99.90
9450;DHT22;4763;48.370;10.874;2022-12-07T13:01:41;4.90;99.90
9450;DHT22;4763;48.370;10.874;2022-12-07T13:04:39;4.90;99.90
9450;DHT22;4763;48.370;10.874;2022-12-07T13:07:55;4.80;99.90
9450;DHT22;4763;48.370;10.874;2022-12-07T13:10:40;4.80;99.90
9450;DHT22;4763;48.370;10.874;2022-12-07T13:13:33;4.90;99.90
9450;DHT22;4763;48.370;10.874;2022-12-07T13:22:41;4.90;99.90
9450;DHT22;4763;48.370;10.874;2022-12-07T13:25:11;4.80;99.90
9450;DHT22;4763;48.370;10.874;2022-12-07T13:27:40;4.80;99.90
9450;DHT22;4763;48.370;10.874;2022-12-07T13:30:16;4.80;99.90
9450;DHT22;4763;48.370;10.874;2022-12-07T13:32:43;4.70;99.90
9450;DHT22;4763;48.370;10.874;2022-12-07T13:35:34;4.70;99.90
9450;DHT22;4763;48.370;10.874;2022-12-07T13:38:13;4.60;99.90
9450;DHT22;4763;48.370;10.874;2022-12-07T13:40:42;4.60;99.90
9450;DHT22;4763;48.370;10.874;2022-12-07T13:43:14;4.60;99.90
9450;DHT22;4763;48.370;10.874;2022-12-07T13:45:43;4.60;99.90
9450;DHT22;4763;48.370;10.874;2022-12-07T13:48:21;4.60;99.90
9450;DHT22;4763;48.370;10.874;2022-12-07T13:50:54;4.60;99.90
9450;DHT22;4763;48.370;10.874;2022-12-07T13:53:21;4.60;99.90
9450;DHT22;4763;48.370;10.874;2022-12-07T13:55:48;4.60;99.90
9450;DHT22;4763;48.370;10.874;2022-12-07T13:58:16;4.60;99.90
9450;DHT22;4763;48.370;10.874;2022-12-07T14:00:44;4.60;99.90
9450;DHT22;4763;48.370;10.874;2022-12-07T14:03:32;4.50;99.90
9450;DHT22;4763;48.370;10.874;2022-12-07T14:06:23;4.50;99.90
9450;DHT22;4763;48.370;10.874;2022-12-07T14:09:17;4.50;99.90
9450;DHT22;4763;48.370;10.874;2022-12-07T14:11:45;4.50;99.90
9450;DHT22;4763;48.370;10.874;2022-12-07T14:14:16;4.50;99.90
9450;DHT22;4763;48.370;10.874;2022-12-07T14:16:58;4.50;99.90
9450;DHT22;4763;48.370;10.874;2022-12-07T14:19:46;4.60;99.90
9450;DHT22;4763;48.370;10.874;2022-12-07T14:22:38;4.60;99.90
9450;DHT22;4763;48.370;10.874;2022-12-07T14:25:19;4.60;99.90
9450;DHT22;4763;48.370;10.874;2022-12-07T14:27:52;4.50;99.90
9450;DHT22;4763;48.370;10.874;2022-12-07T14:30:21;4.50;99.90
9450;DHT22;4763;48.370;10.874;2022-12-07T14:32:53;4.50;99.90
9450;DHT22;4763;48.370;10.874;2022-12-07T14:35:20;4.50;99.90
9450;DHT22;4763;48.370;10.874;2022-12-07T14:37:48;4.50;99.90
9450;DHT22;4763;48.370;10.874;2022-12-07T14:40:17;4.50;99.90
9450;DHT22;4763;48.370;10.874;2022-12-07T14:42:45;4.50;99.90
9450;DHT22;4763;48.370;10.874;2022-12-07T14:47:41;4.40;99.90
9450;DHT22;4763;48.370;10.874;2022-12-07T14:50:12;4.40;99.90
9450;DHT22;4763;48.370;10.874;2022-12-07T14:52:40;4.40;99.90
9450;DHT22;4763;48.370;10.874;2022-12-07T14:55:17;4.40;99.90
9450;DHT22;4763;48.370;10.874;2022-12-07T14:57:46;4.30;99.90
9450;DHT22;4763;48.370;10.874;2022-12-07T15:00:14;4.30;99.90
9450;DHT22;4763;48.370;10.874;2022-12-07T15:02:42;4.20;99.90
9450;DHT22;4763;48.370;10.874;2022-12-07T15:05:11;4.20;99.90
9450;DHT22;4763;48.370;10.874;2022-12-07T15:07:38;4.20;99.90
9450;DHT22;4763;48.370;10.874;2022-12-07T15:10:14;4.20;99.90
9450;DHT22;4763;48.370;10.874;2022-12-07T15:12:41;4.10;99.90
9450;DHT22;4763;48.370;10.874;2022-12-07T15:15:09;4.10;99.90
9450;DHT22;4763;48.370;10.874;2022-12-07T15:17:36;4.10;99.90
9450;DHT22;4763;48.370;10.874;2022-12-07T15:20:03;4.00;99.90
9450;DHT22;4763;48.370;10.874;2022-12-07T15:22:32;4.00;99.90
9450;DHT22;4763;48.370;10.874;2022-12-07T15:24:58;3.90;99.90
9450;DHT22;4763;48.370;10.874;2022-12-07T15:27:25;3.90;99.90
9450;DHT22;4763;48.370;10.874;2022-12-07T15:29:54;3.90;99.90
9450;DHT22;4763;48.370;10.874;2022-12-07T15:32:21;3.80;99.90
9450;DHT22;4763;48.370;10.874;2022-12-07T15:34:49;3.70;99.90
9450;DHT22;4763;48.370;10.874;2022-12-07T15:37:16;3.70;99.90
9450;DHT22;4763;48.370;10.874;2022-12-07T15:39:44;3.70;99.90
9450;DHT22;4763;48.370;10.874;2022-12-07T15:42:11;3.70;99.90
9450;DHT22;4763;48.370;10.874;2022-12-07T15:44:38;3.60;99.90
9450;DHT22;4763;48.370;10.874;2022-12-07T15:47:19;3.60;99.90
9450;DHT22;4763;48.370;10.874;2022-12-07T15:49:46;3.50;99.90
9450;DHT22;4763;48.370;10.874;2022-12-07T15:52:13;3.50;99.90
9450;DHT22;4763;48.370;10.874;2022-12-07T15:54:45;3.40;99.90
9450;DHT22;4763;48.370;10.874;2022-12-07T15:57:12;3.40;99.90
9450;DHT22;4763;48.370;10.874;2022-12-07T15:59:39;3.30;99.90
9450;DHT22;4763;48.370;10.874;2022-12-07T16:02:08;3.30;99.90
9450;DHT22;4763;48.370;10.874;2022-12-07T16:04:36;3.20;99.90
9450;DHT22;4763;48.370;10.874;2022-12-07T16:07:03;3.20;99.90
9450;DHT22;4763;48.370;10.874;2022-12-07T16:09:31;3.10;99.90
9450;DHT22;4763;48.370;10.874;2022-12-07T16:12:01;3.10;99.90
9450;DHT22;4763;48.370;10.874;2022-12-07T16:14:28;3.00;99.90
9450;DHT22;4763;48.370;10.874;2022-12-07T16:16:55;3.00;99.90
9450;DHT22;4763;48.370;10.874;2022-12-07T16:19:21;2.90;99.90
9450;DHT22;4763;48.370;10.874;2022-12-07T16:21:48;2.90;99.90
9450;DHT22;4763;48.370;10.874;2022-12-07T16:24:15;2.80;99.90
9450;DHT22;4763;48.370;10.874;2022-12-07T16:26:42;2.80;99.90
9450;DHT22;4763;48.370;10.874;2022-12-07T16:29:12;2.70;99.90
9450;DHT22;4763;48.370;10.874;2022-12-07T16:31:39;2.70;99.90
9450;DHT22;4763;48.370;10.874;2022-12-07T16:34:07;2.70;99.90
9450;DHT22;4763;48.370;10.874;2022-12-07T16:36:34;2.60;99.90
9450;DHT22;4763;48.370;10.874;2022-12-07T16:39:01;2.60;99.90
9450;DHT22;4763;48.370;10.874;2022-12-07T16:41:28;2.60;99.90
9450;DHT22;4763;48.370;10.874;2022-12-07T16:43:55;2.60;99.90
9450;DHT22;4763;48.370;10.874;2022-12-07T16:46:23;2.50;99.90
9450;DHT22;4763;48.370;10.874;2022-12-07T16:48:51;2.60;99.90